createdAt,value
2023-02-16T07:05:32.559Z,101214.40
2023-02-16T07:07:59.453Z,101214.20
2023-02-16T07:10:34.607Z,101215.19
2023-02-16T07:13:07.088Z,101212.04
2023-02-16T07:15:38.567Z,101211.09
2023-02-16T07:18:09.421Z,101212.06
2023-02-16T07:20:38.829Z,101214.47
2023-02-16T07:23:11.209Z,101211.86
2023-02-16T07:25:38.814Z,101209.33
2023-02-16T07:28:06.877Z,101205.28
2023-02-16T07:30:37.368Z,101211.05
2023-02-16T07:33:27.932Z,101207.31
2023-02-16T07:36:07.099Z,101204.40
2023-02-16T07:38:40.750Z,101197.38
2023-02-16T07:41:19.287Z,101193.19
2023-02-16T07:43:48.209Z,101193.81
2023-02-16T07:46:30.446Z,101185.91
2023-02-16T07:48:59.632Z,101182.12
2023-02-16T07:51:28.458Z,101179.05
2023-02-16T07:53:58.920Z,101182.33
2023-02-16T07:56:31.728Z,101184.55
2023-02-16T07:59:00.530Z,101181.80
2023-02-16T08:01:29.451Z,101177.80
2023-02-16T08:03:58.173Z,101178.13
2023-02-16T08:06:27.224Z,101179.98
2023-02-16T08:08:54.100Z,101184.04
2023-02-16T08:11:22.452Z,101184.94
2023-02-16T08:13:50.197Z,101182.16
2023-02-16T08:16:19.225Z,101186.20
2023-02-16T08:18:47.078Z,101178.27
2023-02-16T08:21:16.429Z,101170.33
2023-02-16T08:23:46.851Z,101166.20
2023-02-16T08:26:16.631Z,101169.36
2023-02-16T08:28:47.181Z,101162.42
2023-02-16T08:31:14.940Z,101161.33
2023-02-16T08:33:42.028Z,101161.44
2023-02-16T08:36:36.097Z,101154.46
2023-02-16T08:39:17.396Z,101155.73
2023-02-16T08:41:46.130Z,101153.34
2023-02-16T08:44:13.584Z,101155.15
2023-02-16T08:46:42.184Z,101152.15
2023-02-16T08:49:12.161Z,101151.71
2023-02-16T08:51:43.682Z,101153.42
2023-02-16T08:54:20.790Z,101154.73
2023-02-16T08:56:48.995Z,101152.36
2023-02-16T08:59:17.895Z,101154.14
2023-02-16T09:01:46.779Z,101153.54
2023-02-16T09:04:15.600Z,101157.15
2023-02-16T09:06:45.852Z,101163.60
2023-02-16T09:09:13.114Z,101156.71
2023-02-16T09:11:40.402Z,101156.92
2023-02-16T09:14:11.661Z,101154.48
2023-02-16T09:16:44.645Z,101152.91
2023-02-16T09:19:14.603Z,101150.84
2023-02-16T09:21:41.570Z,101152.70
2023-02-16T09:24:08.462Z,101149.86
2023-02-16T09:26:53.044Z,101144.63
2023-02-16T09:29:20.668Z,101144.80
2023-02-16T09:31:48.986Z,101146.61
2023-02-16T09:34:18.503Z,101147.96
2023-02-16T09:36:45.402Z,101154.20
2023-02-16T09:39:13.271Z,101155.84
2023-02-16T09:41:39.926Z,101150.36
2023-02-16T09:44:32.919Z,101150.80
2023-02-16T09:47:02.825Z,101147.89
2023-02-16T09:49:38.576Z,101148.52
2023-02-16T09:52:08.530Z,101150.54
2023-02-16T09:54:54.651Z,101144.89
2023-02-16T09:58:39.766Z,101139.41
2023-02-16T10:04:38.401Z,101129.02
2023-02-16T10:11:46.399Z,101121.61
2023-02-16T10:14:36.906Z,101125.96
2023-02-16T10:17:07.102Z,101117.64
2023-02-16T10:19:47.911Z,101119.12
2023-02-16T10:22:17.713Z,101120.03
2023-02-16T10:24:51.529Z,101113.38
2023-02-16T10:27:18.263Z,101111.73
2023-02-16T10:29:44.920Z,101109.55
2023-02-16T10:32:11.644Z,101111.79
2023-02-16T10:34:48.800Z,101114.63
2023-02-16T10:37:30.526Z,101109.52
2023-02-16T10:40:10.160Z,101113.42
2023-02-16T10:42:52.911Z,101110.36
2023-02-16T10:45:34.124Z,101109.52
2023-02-16T10:48:01.433Z,101105.77
2023-02-16T10:50:37.168Z,101106.63
2023-02-16T10:53:08.105Z,101106.73
2023-02-16T10:55:42.534Z,101107.27
2023-02-16T10:58:21.762Z,101103.01
2023-02-16T11:01:11.171Z,101094.14
2023-02-16T11:03:44.091Z,101093.73
2023-02-16T11:06:39.047Z,101090.39
2023-02-16T11:09:07.090Z,101091.42
2023-02-16T11:11:38.843Z,101086.98
2023-02-16T11:14:21.285Z,101089.37
2023-02-16T11:16:49.591Z,101092.59
2023-02-16T11:19:24.562Z,101086.17
2023-02-16T11:21:58.192Z,101081.57
2023-02-16T11:24:29.125Z,101080.46
2023-02-16T11:27:17.807Z,101078.75
2023-02-16T11:29:45.003Z,101076.30
2023-02-16T11:32:12.608Z,101072.53
2023-02-16T11:34:42.114Z,101064.90
2023-02-16T11:37:25.386Z,101059.59
2023-02-16T11:39:54.459Z,101054.36
2023-02-16T11:42:32.335Z,101050.28
2023-02-16T11:45:06.046Z,101044.77
2023-02-16T11:47:39.176Z,101039.59
2023-02-16T11:50:06.245Z,101038.16
2023-02-16T11:52:33.015Z,101038.96
2023-02-16T11:55:01.349Z,101036.31
2023-02-16T11:57:33.150Z,101033.45
2023-02-16T12:00:00.780Z,101027.30
2023-02-16T12:02:57.375Z,101014.85
2023-02-16T12:05:46.700Z,101014.79
2023-02-16T12:08:26.270Z,101011.56
2023-02-16T12:11:15.125Z,101011.80
2023-02-16T12:13:54.028Z,101005.91
2023-02-16T12:16:30.833Z,101004.78
2023-02-16T12:19:43.421Z,101004.13
2023-02-16T12:22:13.875Z,101001.97
2023-02-16T12:24:57.298Z,101006.85
2023-02-16T12:27:35.679Z,101003.57
2023-02-16T12:30:11.456Z,101003.44
2023-02-16T12:32:59.937Z,100999.27
